sensor_id;sensor_type;location;lat;lon;timestamp;pressure;altitude;pressure_sealevel;temperature;humidity
52032;BME280;38044;45.148;39.604;2023-07-09T00:02:17;99917.56;;;20.37;93.01
52032;BME280;38044;45.148;39.604;2023-07-09T00:04:43;99920.03;;;20.46;92.87
52032;BME280;38044;45.148;39.604;2023-07-09T00:07:27;99923.09;;;20.41;92.89
52032;BME280;38044;45.148;39.604;2023-07-09T00:09:54;99917.56;;;20.37;93.20
52032;BME280;38044;45.148;39.604;2023-07-09T00:12:21;99912.66;;;20.50;92.36
52032;BME280;38044;45.148;39.604;2023-07-09T00:14:47;99924.94;;;20.67;91.53
52032;BME280;38044;45.148;39.604;2023-07-09T00:17:36;99910.88;;;20.65;91.10
52032;BME280;38044;45.148;39.604;2023-07-09T00:20:06;99908.22;;;20.72;90.10
52032;BME280;38044;45.148;39.604;2023-07-09T00:22:41;99916.00;;;20.70;90.26
52032;BME280;38044;45.148;39.604;2023-07-09T00:25:13;99914.03;;;20.67;90.40
52032;BME280;38044;45.148;39.604;2023-07-09T00:27:42;99917.09;;;20.62;90.67
52032;BME280;38044;45.148;39.604;2023-07-09T00:30:21;99912.25;;;20.52;90.98
52032;BME280;38044;45.148;39.604;2023-07-09T00:32:50;99907.53;;;20.48;91.21
52032;BME280;38044;45.148;39.604;2023-07-09T00:35:17;99909.47;;;20.44;91.21
52032;BME280;38044;45.148;39.604;2023-07-09T00:37:45;99903.84;;;20.30;92.28
52032;BME280;38044;45.148;39.604;2023-07-09T00:40:20;99914.31;;;20.24;92.56
52032;BME280;38044;45.148;39.604;2023-07-09T00:42:52;99902.44;;;20.10;93.34
52032;BME280;38044;45.148;39.604;2023-07-09T00:45:23;99916.69;;;20.26;93.23
52032;BME280;38044;45.148;39.604;2023-07-09T00:48:02;99920.63;;;20.32;92.39
52032;BME280;38044;45.148;39.604;2023-07-09T00:50:45;99921.63;;;20.51;91.44
52032;BME280;38044;45.148;39.604;2023-07-09T00:53:30;99930.97;;;20.50;90.94
52032;BME280;38044;45.148;39.604;2023-07-09T00:56:09;99931.75;;;20.50;91.25
52032;BME280;38044;45.148;39.604;2023-07-09T00:58:42;99920.63;;;20.32;91.80
52032;BME280;38044;45.148;39.604;2023-07-09T01:01:43;99917.50;;;20.30;92.13
52032;BME280;38044;45.148;39.604;2023-07-09T01:04:18;99907.22;;;20.20;92.68
52032;BME280;38044;45.148;39.604;2023-07-09T01:06:56;99910.31;;;20.15;92.71
52032;BME280;38044;45.148;39.604;2023-07-09T01:09:36;99916.75;;;20.33;92.46
52032;BME280;38044;45.148;39.604;2023-07-09T01:12:09;99923.09;;;20.41;91.89
52032;BME280;38044;45.148;39.604;2023-07-09T01:14:42;99909.88;;;20.46;91.65
52032;BME280;38044;45.148;39.604;2023-07-09T01:17:18;99909.72;;;20.32;91.24
52032;BME280;38044;45.148;39.604;2023-07-09T01:19:51;99909.31;;;20.30;91.78
52032;BME280;38044;45.148;39.604;2023-07-09T01:22:27;99907.56;;;20.15;92.80
52032;BME280;38044;45.148;39.604;2023-07-09T01:25:19;99898.00;;;19.98;93.55
52032;BME280;38044;45.148;39.604;2023-07-09T01:28:08;99907.47;;;20.08;93.69
52032;BME280;38044;45.148;39.604;2023-07-09T01:30:38;99911.31;;;20.03;93.85
52032;BME280;38044;45.148;39.604;2023-07-09T01:33:05;99907.94;;;20.13;93.32
52032;BME280;38044;45.148;39.604;2023-07-09T01:35:33;99913.84;;;20.19;92.26
52032;BME280;38044;45.148;39.604;2023-07-09T01:38:00;99919.06;;;20.31;91.72
52032;BME280;38044;45.148;39.604;2023-07-09T01:40:27;99924.44;;;20.24;91.78
52032;BME280;38044;45.148;39.604;2023-07-09T01:42:54;99917.31;;;20.16;92.43
52032;BME280;38044;45.148;39.604;2023-07-09T01:45:21;99929.13;;;20.23;91.98
52032;BME280;38044;45.148;39.604;2023-07-09T01:47:47;99921.28;;;20.22;92.09
52032;BME280;38044;45.148;39.604;2023-07-09T01:50:13;99923.69;;;20.27;91.80
52032;BME280;38044;45.148;39.604;2023-07-09T01:52:43;99919.06;;;20.31;91.23
52032;BME280;38044;45.148;39.604;2023-07-09T01:55:11;99937.19;;;20.46;91.10
52032;BME280;38044;45.148;39.604;2023-07-09T01:57:37;99938.31;;;20.45;91.38
52032;BME280;38044;45.148;39.604;2023-07-09T02:00:14;99939.41;;;20.37;91.59
52032;BME280;38044;45.148;39.604;2023-07-09T02:02:42;99938.69;;;20.40;91.50
52032;BME280;38044;45.148;39.604;2023-07-09T02:05:09;99943.53;;;20.54;91.78
52032;BME280;38044;45.148;39.604;2023-07-09T02:07:35;99947.22;;;20.69;91.30
52032;BME280;38044;45.148;39.604;2023-07-09T02:10:01;99957.59;;;20.93;90.02
52032;BME280;38044;45.148;39.604;2023-07-09T02:12:28;99954.19;;;21.04;89.60
52032;BME280;38044;45.148;39.604;2023-07-09T02:14:53;99964.06;;;21.15;89.24
52032;BME280;38044;45.148;39.604;2023-07-09T02:17:19;99972.53;;;21.48;87.65
52032;BME280;38044;45.148;39.604;2023-07-09T02:19:45;99965.78;;;21.86;86.00
52032;BME280;38044;45.148;39.604;2023-07-09T02:22:11;99969.94;;;22.32;83.78
52032;BME280;38044;45.148;39.604;2023-07-09T02:24:38;99966.06;;;22.40;82.58
52032;BME280;38044;45.148;39.604;2023-07-09T02:27:07;99955.47;;;22.27;82.45
52032;BME280;38044;45.148;39.604;2023-07-09T02:29:34;99953.53;;;22.32;82.51
52032;BME280;38044;45.148;39.604;2023-07-09T02:32:00;99963.69;;;22.27;82.62
52032;BME280;38044;45.148;39.604;2023-07-09T02:34:27;99973.69;;;21.98;84.03
52032;BME280;38044;45.148;39.604;2023-07-09T02:36:55;99966.53;;;21.79;85.67
52032;BME280;38044;45.148;39.604;2023-07-09T02:39:22;99964.56;;;21.80;85.91
52032;BME280;38044;45.148;39.604;2023-07-09T02:41:48;99954.03;;;21.86;85.68
52032;BME280;38044;45.148;39.604;2023-07-09T02:44:15;99952.91;;;21.87;85.78
52032;BME280;38044;45.148;39.604;2023-07-09T02:46:41;99946.25;;;21.88;86.31
52032;BME280;38044;45.148;39.604;2023-07-09T02:49:10;99928.22;;;21.79;86.68
52032;BME280;38044;45.148;39.604;2023-07-09T02:51:36;99941.56;;;21.88;87.21
52032;BME280;38044;45.148;39.604;2023-07-09T02:54:03;99942.84;;;22.09;85.76
52032;BME280;38044;45.148;39.604;2023-07-09T02:56:30;99930.69;;;22.06;85.41
52032;BME280;38044;45.148;39.604;2023-07-09T02:58:56;99936.94;;;22.03;85.70
52032;BME280;38044;45.148;39.604;2023-07-09T03:01:22;99939.69;;;22.03;86.36
52032;BME280;38044;45.148;39.604;2023-07-09T03:03:54;99940.91;;;22.09;85.88
52032;BME280;38044;45.148;39.604;2023-07-09T03:06:21;99951.09;;;22.16;85.49
52032;BME280;38044;45.148;39.604;2023-07-09T03:08:48;99952.69;;;22.20;85.24
52032;BME280;38044;45.148;39.604;2023-07-09T03:11:16;99952.69;;;22.20;84.68
52032;BME280;38044;45.148;39.604;2023-07-09T03:13:42;99955.09;;;22.29;84.73
52032;BME280;38044;45.148;39.604;2023-07-09T03:16:08;99949.59;;;22.25;84.35
52032;BME280;38044;45.148;39.604;2023-07-09T03:18:34;99959.41;;;22.30;85.04
52032;BME280;38044;45.148;39.604;2023-07-09T03:21:00;99958.22;;;22.35;84.94
52032;BME280;38044;45.148;39.604;2023-07-09T03:23:26;99942.56;;;22.28;84.67
52032;BME280;38044;45.148;39.604;2023-07-09T03:25:52;99950.84;;;22.39;85.51
52032;BME280;38044;45.148;39.604;2023-07-09T03:28:18;99954.38;;;22.50;84.90
52032;BME280;38044;45.148;39.604;2023-07-09T03:30:45;99950.50;;;22.62;84.93
52032;BME280;38044;45.148;39.604;2023-07-09T03:33:12;99959.13;;;22.71;83.92
52032;BME280;38044;45.148;39.604;2023-07-09T03:35:39;99956.81;;;22.73;83.82
52032;BME280;38044;45.148;39.604;2023-07-09T03:38:07;99958.78;;;22.87;83.77
52032;BME280;38044;45.148;39.604;2023-07-09T03:40:33;99954.16;;;22.98;83.08
52032;BME280;38044;45.148;39.604;2023-07-09T03:42:59;99950.59;;;22.98;82.88
52032;BME280;38044;45.148;39.604;2023-07-09T03:45:25;99963.16;;;23.09;82.65
52032;BME280;38044;45.148;39.604;2023-07-09T03:47:51;99952.22;;;23.24;82.35
52032;BME280;38044;45.148;39.604;2023-07-09T03:50:18;99956.09;;;23.26;82.28
52032;BME280;38044;45.148;39.604;2023-07-09T03:52:46;99966.31;;;23.33;81.61
52032;BME280;38044;45.148;39.604;2023-07-09T03:55:12;99967.09;;;23.44;82.07
52032;BME280;38044;45.148;39.604;2023-07-09T03:57:38;99956.13;;;23.48;81.66
52032;BME280;38044;45.148;39.604;2023-07-09T04:00:05;99967.06;;;23.62;80.75
52032;BME280;38044;45.148;39.604;2023-07-09T04:02:31;99968.66;;;23.74;80.33
52032;BME280;38044;45.148;39.604;2023-07-09T04:04:57;99967.06;;;23.83;79.07
52032;BME280;38044;45.148;39.604;2023-07-09T04:07:23;99972.47;;;24.19;78.93
52032;BME280;38044;45.148;39.604;2023-07-09T04:09:50;99968.13;;;24.25;78.74
52032;BME280;38044;45.148;39.604;2023-07-09T04:12:19;99960.66;;;24.33;78.17
52032;BME280;38044;45.148;39.604;2023-07-09T04:14:48;99980.22;;;24.42;78.95
52032;BME280;38044;45.148;39.604;2023-07-09T04:17:13;99976.69;;;24.53;78.03
52032;BME280;38044;45.148;39.604;2023-07-09T04:19:39;99976.31;;;24.43;77.43
52032;BME280;38044;45.148;39.604;2023-07-09T04:22:05;99980.66;;;24.44;77.79
52032;BME280;38044;45.148;39.604;2023-07-09T04:24:31;99979.44;;;24.49;77.46
52032;BME280;38044;45.148;39.604;2023-07-09T04:26:59;99991.94;;;24.61;77.74
52032;BME280;38044;45.148;39.604;2023-07-09T04:29:30;99990.72;;;24.69;77.34
52032;BME280;38044;45.148;39.604;2023-07-09T04:31:59;99993.84;;;24.78;76.94
52032;BME280;38044;45.148;39.604;2023-07-09T04:34:26;99997.78;;;24.70;76.76
52032;BME280;38044;45.148;39.604;2023-07-09T04:36:52;99992.72;;;24.65;77.37
52032;BME280;38044;45.148;39.604;2023-07-09T04:39:18;99996.66;;;24.64;77.21
52032;BME280;38044;45.148;39.604;2023-07-09T04:41:44;99997.34;;;24.75;76.58
52032;BME280;38044;45.148;39.604;2023-07-09T04:44:10;99993.84;;;24.71;76.45
52032;BME280;38044;45.148;39.604;2023-07-09T04:46:36;99980.09;;;24.75;77.16
52032;BME280;38044;45.148;39.604;2023-07-09T04:49:03;99986.63;;;24.95;77.34
52032;BME280;38044;45.148;39.604;2023-07-09T04:51:29;99975.78;;;25.36;75.83
52032;BME280;38044;45.148;39.604;2023-07-09T04:53:56;99967.38;;;25.96;73.76
52032;BME280;38044;45.148;39.604;2023-07-09T04:56:23;99974.88;;;26.91;71.16
52032;BME280;38044;45.148;39.604;2023-07-09T04:58:49;99969.06;;;27.59;68.13
52032;BME280;38044;45.148;39.604;2023-07-09T05:01:15;99969.50;;;27.78;67.54
52032;BME280;38044;45.148;39.604;2023-07-09T05:03:41;99976.16;;;28.04;66.20
52032;BME280;38044;45.148;39.604;2023-07-09T05:06:07;99978.88;;;28.07;65.75
52032;BME280;38044;45.148;39.604;2023-07-09T05:08:33;99975.25;;;27.67;66.31
52032;BME280;38044;45.148;39.604;2023-07-09T05:10:59;99979.38;;;27.55;66.54
52032;BME280;38044;45.148;39.604;2023-07-09T05:13:25;99974.09;;;27.41;67.52
52032;BME280;38044;45.148;39.604;2023-07-09T05:15:52;99960.44;;;27.07;68.49
52032;BME280;38044;45.148;39.604;2023-07-09T05:18:18;99985.63;;;26.82;69.47
52032;BME280;38044;45.148;39.604;2023-07-09T05:20:46;99989.56;;;26.54;70.62
52032;BME280;38044;45.148;39.604;2023-07-09T05:23:12;99987.63;;;26.16;71.80
52032;BME280;38044;45.148;39.604;2023-07-09T05:25:38;99985.53;;;25.90;73.20
52032;BME280;38044;45.148;39.604;2023-07-09T05:28:05;99981.66;;;25.83;73.82
52032;BME280;38044;45.148;39.604;2023-07-09T05:30:31;99976.16;;;25.80;73.53
52032;BME280;38044;45.148;39.604;2023-07-09T05:32:57;99979.81;;;25.66;74.58
52032;BME280;38044;45.148;39.604;2023-07-09T05:35:25;99972.56;;;25.45;74.92
52032;BME280;38044;45.148;39.604;2023-07-09T05:37:53;99977.31;;;25.37;76.01
52032;BME280;38044;45.148;39.604;2023-07-09T05:40:20;99986.69;;;25.44;75.84
52032;BME280;38044;45.148;39.604;2023-07-09T05:42:48;99990.63;;;25.46;76.29
52032;BME280;38044;45.148;39.604;2023-07-09T05:45:15;99985.88;;;25.50;76.21
52032;BME280;38044;45.148;39.604;2023-07-09T05:47:41;99977.97;;;25.52;76.14
52032;BME280;38044;45.148;39.604;2023-07-09T05:50:07;99981.53;;;25.53;75.83
52032;BME280;38044;45.148;39.604;2023-07-09T05:52:33;99967.78;;;25.49;76.43
52032;BME280;38044;45.148;39.604;2023-07-09T05:54:59;99988.53;;;25.61;76.77
52032;BME280;38044;45.148;39.604;2023-07-09T05:57:25;99977.13;;;25.62;76.52
52032;BME280;38044;45.148;39.604;2023-07-09T05:59:51;99982.44;;;25.80;75.75
52032;BME280;38044;45.148;39.604;2023-07-09T06:02:19;99980.94;;;25.72;75.21
52032;BME280;38044;45.148;39.604;2023-07-09T06:04:45;99998.22;;;25.76;76.03
52032;BME280;38044;45.148;39.604;2023-07-09T06:07:12;99989.25;;;25.69;75.40
52032;BME280;38044;45.148;39.604;2023-07-09T06:09:41;99988.97;;;25.56;75.95
52032;BME280;38044;45.148;39.604;2023-07-09T06:12:07;99979.13;;;25.55;76.02
52032;BME280;38044;45.148;39.604;2023-07-09T06:14:33;99981.84;;;25.62;75.94
52032;BME280;38044;45.148;39.604;2023-07-09T06:17:00;99979.44;;;25.68;75.63
52032;BME280;38044;45.148;39.604;2023-07-09T06:19:27;99975.47;;;25.69;75.58
52032;BME280;38044;45.148;39.604;2023-07-09T06:21:53;99968.81;;;25.66;75.22
52032;BME280;38044;45.148;39.604;2023-07-09T06:24:19;99971.78;;;25.45;75.32
52032;BME280;38044;45.148;39.604;2023-07-09T06:26:45;99974.09;;;25.50;75.81
52032;BME280;38044;45.148;39.604;2023-07-09T06:29:14;99960.91;;;25.30;76.91
52032;BME280;38044;45.148;39.604;2023-07-09T06:31:41;99962.53;;;25.21;77.44
52032;BME280;38044;45.148;39.604;2023-07-09T06:34:08;99979.53;;;25.05;79.74
52032;BME280;38044;45.148;39.604;2023-07-09T06:36:35;99967.03;;;24.93;79.64
52032;BME280;38044;45.148;39.604;2023-07-09T06:39:02;99955.06;;;24.55;81.71
52032;BME280;38044;45.148;39.604;2023-07-09T06:41:31;99972.41;;;24.26;83.82
52032;BME280;38044;45.148;39.604;2023-07-09T06:44:08;99969.38;;;24.03;84.20
52032;BME280;38044;45.148;39.604;2023-07-09T06:46:35;99952.94;;;23.96;85.72
52032;BME280;38044;45.148;39.604;2023-07-09T06:49:02;99970.59;;;23.84;85.48
52032;BME280;38044;45.148;39.604;2023-07-09T06:51:28;99974.91;;;23.64;87.03
52032;BME280;38044;45.148;39.604;2023-07-09T06:53:54;99974.13;;;23.45;88.61
52032;BME280;38044;45.148;39.604;2023-07-09T06:56:20;99962.38;;;23.34;88.05
52032;BME280;38044;45.148;39.604;2023-07-09T06:58:46;99958.84;;;23.26;87.74
52032;BME280;38044;45.148;39.604;2023-07-09T07:01:12;99948.28;;;23.25;85.93
52032;BME280;38044;45.148;39.604;2023-07-09T07:03:39;99958.47;;;23.28;85.08
52032;BME280;38044;45.148;39.604;2023-07-09T07:06:05;99951.44;;;23.41;83.24
52032;BME280;38044;45.148;39.604;2023-07-09T07:08:32;99961.59;;;23.51;80.32
52032;BME280;38044;45.148;39.604;2023-07-09T07:11:02;99958.47;;;23.64;78.70
52032;BME280;38044;45.148;39.604;2023-07-09T07:13:29;99941.22;;;23.74;81.13
52032;BME280;38044;45.148;39.604;2023-07-09T07:15:55;99947.84;;;23.87;80.83
52032;BME280;38044;45.148;39.604;2023-07-09T07:18:25;99952.91;;;24.07;81.30
52032;BME280;38044;45.148;39.604;2023-07-09T07:20:51;99951.28;;;24.16;81.58
52032;BME280;38044;45.148;39.604;2023-07-09T07:23:18;99963.06;;;24.13;82.14
52032;BME280;38044;45.148;39.604;2023-07-09T07:25:54;99949.78;;;23.94;84.03
52032;BME280;38044;45.148;39.604;2023-07-09T07:28:21;99941.97;;;23.85;84.11
52032;BME280;38044;45.148;39.604;2023-07-09T07:30:57;99952.94;;;23.85;84.82
52032;BME280;38044;45.148;39.604;2023-07-09T07:33:26;99955.28;;;23.90;85.11
52032;BME280;38044;45.148;39.604;2023-07-09T07:35:52;99947.41;;;24.07;85.22
52032;BME280;38044;45.148;39.604;2023-07-09T07:38:18;99952.47;;;24.19;83.63
52032;BME280;38044;45.148;39.604;2023-07-09T07:40:46;99957.84;;;24.40;82.91
52032;BME280;38044;45.148;39.604;2023-07-09T07:43:13;99951.06;;;24.66;82.97
52032;BME280;38044;45.148;39.604;2023-07-09T07:45:43;99955.66;;;24.91;82.56
52032;BME280;38044;45.148;39.604;2023-07-09T07:48:10;99960.22;;;25.12;82.58
52032;BME280;38044;45.148;39.604;2023-07-09T07:50:36;99960.03;;;25.37;80.53
52032;BME280;38044;45.148;39.604;2023-07-09T07:53:03;99947.38;;;25.47;82.13
52032;BME280;38044;45.148;39.604;2023-07-09T07:55:29;99952.81;;;25.54;80.32
52032;BME280;38044;45.148;39.604;2023-07-09T07:57:55;99956.22;;;25.69;80.49
52032;BME280;38044;45.148;39.604;2023-07-09T08:00:22;99960.75;;;25.90;77.72
52032;BME280;38044;45.148;39.604;2023-07-09T08:02:48;99965.81;;;25.95;77.07
52032;BME280;38044;45.148;39.604;2023-07-09T08:05:14;99962.22;;;25.98;76.58
52032;BME280;38044;45.148;39.604;2023-07-09T08:07:40;99956.72;;;26.01;77.80
52032;BME280;38044;45.148;39.604;2023-07-09T08:10:07;99952.97;;;26.15;76.89
52032;BME280;38044;45.148;39.604;2023-07-09T08:12:33;99960.69;;;26.31;75.66
52032;BME280;38044;45.148;39.604;2023-07-09T08:14:59;99953.00;;;26.46;76.60
52032;BME280;38044;45.148;39.604;2023-07-09T08:17:25;99963.56;;;26.82;73.62
52032;BME280;38044;45.148;39.604;2023-07-09T08:19:54;99959.41;;;26.97;73.80
52032;BME280;38044;45.148;39.604;2023-07-09T08:22:21;99957.47;;;26.94;73.29
52032;BME280;38044;45.148;39.604;2023-07-09T08:24:48;99966.84;;;27.00;73.29
52032;BME280;38044;45.148;39.604;2023-07-09T08:27:14;99970.94;;;27.19;73.75
52032;BME280;38044;45.148;39.604;2023-07-09T08:29:40;99971.69;;;27.43;71.85
52032;BME280;38044;45.148;39.604;2023-07-09T08:32:08;99970.16;;;27.42;71.62
52032;BME280;38044;45.148;39.604;2023-07-09T08:34:34;99969.31;;;27.45;73.85
52032;BME280;38044;45.148;39.604;2023-07-09T08:37:01;99964.78;;;27.55;72.35
52032;BME280;38044;45.148;39.604;2023-07-09T08:39:29;99970.09;;;27.46;72.79
52032;BME280;38044;45.148;39.604;2023-07-09T08:47:36;99974.22;;;27.34;70.47
52032;BME280;38044;45.148;39.604;2023-07-09T08:52:39;99985.22;;;27.10;72.71
52032;BME280;38044;45.148;39.604;2023-07-09T08:55:08;99979.63;;;26.87;74.00
52032;BME280;38044;45.148;39.604;2023-07-09T08:57:41;99965.53;;;26.81;73.01
52032;BME280;38044;45.148;39.604;2023-07-09T09:00:28;99968.56;;;26.90;72.19
52032;BME280;38044;45.148;39.604;2023-07-09T09:03:09;99974.59;;;26.82;72.10
52032;BME280;38044;45.148;39.604;2023-07-09T09:05:46;99975.53;;;26.71;73.44
52032;BME280;38044;45.148;39.604;2023-07-09T09:08:30;99974.88;;;26.91;72.30
52032;BME280;38044;45.148;39.604;2023-07-09T09:14:07;99977.28;;;27.39;72.43
52032;BME280;38044;45.148;39.604;2023-07-09T09:16:39;99969.69;;;27.47;70.94
52032;BME280;38044;45.148;39.604;2023-07-09T09:19:18;99980.34;;;27.45;70.33
52032;BME280;38044;45.148;39.604;2023-07-09T09:21:47;99981.97;;;27.43;71.24
52032;BME280;38044;45.148;39.604;2023-07-09T09:27:25;99975.88;;;27.75;70.97
52032;BME280;38044;45.148;39.604;2023-07-09T09:29:51;99974.22;;;27.81;70.52
52032;BME280;38044;45.148;39.604;2023-07-09T09:32:26;99978.31;;;27.93;69.76
52032;BME280;38044;45.148;39.604;2023-07-09T09:34:53;99983.59;;;28.27;68.33
52032;BME280;38044;45.148;39.604;2023-07-09T09:37:27;99983.28;;;28.61;68.48
52032;BME280;38044;45.148;39.604;2023-07-09T09:39:53;99974.84;;;28.68;66.10
52032;BME280;38044;45.148;39.604;2023-07-09T09:42:19;99983.50;;;28.70;65.46
52032;BME280;38044;45.148;39.604;2023-07-09T09:44:46;99969.25;;;28.72;67.33
52032;BME280;38044;45.148;39.604;2023-07-09T09:47:12;99968.28;;;28.79;65.99
52032;BME280;38044;45.148;39.604;2023-07-09T09:49:43;99968.38;;;28.75;65.76
52032;BME280;38044;45.148;39.604;2023-07-09T09:52:14;99973.75;;;28.98;64.85
52032;BME280;38044;45.148;39.604;2023-07-09T09:54:46;99971.56;;;29.10;63.75
52032;BME280;38044;45.148;39.604;2023-07-09T09:57:19;99976.66;;;29.11;63.93
52032;BME280;38044;45.148;39.604;2023-07-09T09:59:46;99967.16;;;29.29;62.90
52032;BME280;38044;45.148;39.604;2023-07-09T10:02:23;99970.69;;;29.46;64.02
52032;BME280;38044;45.148;39.604;2023-07-09T10:04:51;99963.78;;;29.37;61.88
52032;BME280;38044;45.148;39.604;2023-07-09T10:07:27;99963.69;;;29.41;62.09
52032;BME280;38044;45.148;39.604;2023-07-09T10:09:55;99953.97;;;29.49;61.15
52032;BME280;38044;45.148;39.604;2023-07-09T10:12:38;99939.75;;;29.80;61.54
52032;BME280;38044;45.148;39.604;2023-07-09T10:15:17;99950.28;;;30.14;57.32
52032;BME280;38044;45.148;39.604;2023-07-09T10:22:57;99931.56;;;29.89;56.05
52032;BME280;38044;45.148;39.604;2023-07-09T10:25:46;99953.16;;;29.81;55.23
52032;BME280;38044;45.148;39.604;2023-07-09T10:28:43;99940.91;;;29.95;56.04
52032;BME280;38044;45.148;39.604;2023-07-09T10:37:00;99938.84;;;30.92;53.21
52032;BME280;38044;45.148;39.604;2023-07-09T10:39:38;99932.94;;;30.78;53.71
52032;BME280;38044;45.148;39.604;2023-07-09T10:42:21;99933.28;;;30.67;54.50
52032;BME280;38044;45.148;39.604;2023-07-09T10:44:54;99942.69;;;30.44;54.56
52032;BME280;38044;45.148;39.604;2023-07-09T10:47:37;99941.22;;;30.26;55.64
52032;BME280;38044;45.148;39.604;2023-07-09T10:50:09;99946.78;;;30.26;56.33
52032;BME280;38044;45.148;39.604;2023-07-09T10:52:41;99941.50;;;30.03;56.19
52032;BME280;38044;45.148;39.604;2023-07-09T10:57:58;99957.88;;;29.52;57.28
52032;BME280;38044;45.148;39.604;2023-07-09T11:00:34;99945.09;;;29.25;57.34
52032;BME280;38044;45.148;39.604;2023-07-09T11:03:55;99948.97;;;28.95;57.41
52032;BME280;38044;45.148;39.604;2023-07-09T11:05:55;99953.19;;;28.83;57.78
52032;BME280;38044;45.148;39.604;2023-07-09T11:08:32;99948.88;;;28.82;58.61
52032;BME280;38044;45.148;39.604;2023-07-09T11:11:05;99949.19;;;28.84;58.06
52032;BME280;38044;45.148;39.604;2023-07-09T11:13:46;99947.56;;;28.87;58.64
52032;BME280;38044;45.148;39.604;2023-07-09T11:16:20;99943.25;;;28.86;57.42
52032;BME280;38044;45.148;39.604;2023-07-09T11:18:56;99955.59;;;28.81;56.73
52032;BME280;38044;45.148;39.604;2023-07-09T11:21:23;99951.25;;;28.64;56.90
52032;BME280;38044;45.148;39.604;2023-07-09T11:23:55;99955.72;;;28.58;58.11
52032;BME280;38044;45.148;39.604;2023-07-09T11:26:31;99957.81;;;28.54;57.27
52032;BME280;38044;45.148;39.604;2023-07-09T11:29:15;99954.59;;;28.35;57.85
52032;BME280;38044;45.148;39.604;2023-07-09T11:31:45;99952.84;;;28.25;57.30
52032;BME280;38044;45.148;39.604;2023-07-09T11:36:59;99950.59;;;28.20;58.56
52032;BME280;38044;45.148;39.604;2023-07-09T11:41:56;99945.44;;;28.42;58.16
52032;BME280;38044;45.148;39.604;2023-07-09T11:44:25;99947.59;;;28.50;57.45
52032;BME280;38044;45.148;39.604;2023-07-09T11:47:19;99939.66;;;28.52;56.92
52032;BME280;38044;45.148;39.604;2023-07-09T11:49:51;99934.13;;;28.52;56.88
52032;BME280;38044;45.148;39.604;2023-07-09T11:52:25;99929.31;;;28.57;57.82
52032;BME280;38044;45.148;39.604;2023-07-09T11:54:53;99923.88;;;28.69;58.14
52032;BME280;38044;45.148;39.604;2023-07-09T11:57:19;99920.00;;;29.00;57.47
52032;BME280;38044;45.148;39.604;2023-07-09T11:59:45;99918.97;;;29.10;56.95
52032;BME280;38044;45.148;39.604;2023-07-09T12:02:20;99915.84;;;29.24;57.77
52032;BME280;38044;45.148;39.604;2023-07-09T12:04:50;99925.22;;;29.30;57.49
52032;BME280;38044;45.148;39.604;2023-07-09T12:07:17;99918.44;;;29.48;57.40
52032;BME280;38044;45.148;39.604;2023-07-09T12:09:49;99912.81;;;29.51;57.71
52032;BME280;38044;45.148;39.604;2023-07-09T12:14:43;99914.78;;;29.51;56.80
52032;BME280;38044;45.148;39.604;2023-07-09T12:17:09;99909.31;;;29.63;57.50
52032;BME280;38044;45.148;39.604;2023-07-09T12:19:35;99913.41;;;29.59;56.51
52032;BME280;38044;45.148;39.604;2023-07-09T12:22:01;99919.09;;;29.68;57.07
52032;BME280;38044;45.148;39.604;2023-07-09T12:24:29;99911.47;;;29.72;56.43
52032;BME280;38044;45.148;39.604;2023-07-09T12:27:04;99915.25;;;29.78;56.39
52032;BME280;38044;45.148;39.604;2023-07-09T12:29:42;99926.09;;;30.02;55.96
52032;BME280;38044;45.148;39.604;2023-07-09T12:32:13;99910.56;;;30.04;56.60
52032;BME280;38044;45.148;39.604;2023-07-09T12:34:40;99928.72;;;30.35;56.61
52032;BME280;38044;45.148;39.604;2023-07-09T12:37:13;99926.00;;;30.18;56.31
52032;BME280;38044;45.148;39.604;2023-07-09T12:39:39;99922.50;;;30.30;56.50
52032;BME280;38044;45.148;39.604;2023-07-09T12:42:19;99929.53;;;30.19;55.88
52032;BME280;38044;45.148;39.604;2023-07-09T12:44:46;99938.66;;;30.19;56.01
52032;BME280;38044;45.148;39.604;2023-07-09T12:47:15;99939.81;;;30.22;55.67
52032;BME280;38044;45.148;39.604;2023-07-09T12:49:44;99932.53;;;30.12;56.89
52032;BME280;38044;45.148;39.604;2023-07-09T12:52:18;99935.53;;;30.17;56.12
52032;BME280;38044;45.148;39.604;2023-07-09T12:54:59;99933.59;;;30.01;56.46
52032;BME280;38044;45.148;39.604;2023-07-09T12:57:27;99933.72;;;29.98;56.60
52032;BME280;38044;45.148;39.604;2023-07-09T12:59:55;99919.38;;;29.86;56.58
52032;BME280;38044;45.148;39.604;2023-07-09T13:02:28;99919.72;;;29.89;57.89
52032;BME280;38044;45.148;39.604;2023-07-09T13:05:06;99914.06;;;29.92;57.26
52032;BME280;38044;45.148;39.604;2023-07-09T13:07:58;99911.19;;;30.38;57.23
52032;BME280;38044;45.148;39.604;2023-07-09T13:10:29;99888.03;;;30.57;56.42
52032;BME280;38044;45.148;39.604;2023-07-09T13:13:02;99893.78;;;30.50;57.22
52032;BME280;38044;45.148;39.604;2023-07-09T13:16:00;99900.53;;;30.62;56.37
52032;BME280;38044;45.148;39.604;2023-07-09T13:18:28;99902.00;;;30.28;56.78
52032;BME280;38044;45.148;39.604;2023-07-09T13:20:56;99909.72;;;30.20;57.32
52032;BME280;38044;45.148;39.604;2023-07-09T13:23:25;99900.63;;;30.20;56.67
52032;BME280;38044;45.148;39.604;2023-07-09T13:25:52;99903.81;;;30.18;56.35
52032;BME280;38044;45.148;39.604;2023-07-09T13:28:28;99901.03;;;30.05;57.04
52032;BME280;38044;45.148;39.604;2023-07-09T13:31:11;99915.53;;;29.97;57.75
52032;BME280;38044;45.148;39.604;2023-07-09T13:33:38;99908.50;;;29.79;57.37
52032;BME280;38044;45.148;39.604;2023-07-09T13:36:05;99917.22;;;29.65;57.11
52032;BME280;38044;45.148;39.604;2023-07-09T13:38:32;99928.09;;;29.72;59.75
52032;BME280;38044;45.148;39.604;2023-07-09T13:41:10;99927.63;;;29.45;58.84